sensor_id;sensor_type;location;lat;lon;timestamp;temperature;humidity
11577;DHT22;5844;51.496;6.788;2023-03-14T00:01:24;12.20;1.00
11577;DHT22;5844;51.496;6.788;2023-03-14T00:03:50;12.30;1.00
11577;DHT22;5844;51.496;6.788;2023-03-14T00:06:16;12.30;1.00
11577;DHT22;5844;51.496;6.788;2023-03-14T00:08:44;12.40;1.00
11577;DHT22;5844;51.496;6.788;2023-03-14T00:11:13;12.40;1.00
11577;DHT22;5844;51.496;6.788;2023-03-14T00:13:39;12.50;1.00
11577;DHT22;5844;51.496;6.788;2023-03-14T00:16:10;12.50;1.00
11577;DHT22;5844;51.496;6.788;2023-03-14T00:18:36;12.50;1.00
11577;DHT22;5844;51.496;6.788;2023-03-14T00:21:04;12.50;1.00
11577;DHT22;5844;51.496;6.788;2023-03-14T00:23:32;12.30;1.00
11577;DHT22;5844;51.496;6.788;2023-03-14T00:26:13;12.40;1.00
11577;DHT22;5844;51.496;6.788;2023-03-14T00:28:39;12.30;1.00
11577;DHT22;5844;51.496;6.788;2023-03-14T00:31:07;12.30;1.00
11577;DHT22;5844;51.496;6.788;2023-03-14T00:33:33;12.40;1.00
11577;DHT22;5844;51.496;6.788;2023-03-14T00:36:05;12.30;1.00
11577;DHT22;5844;51.496;6.788;2023-03-14T00:38:32;12.40;1.00
11577;DHT22;5844;51.496;6.788;2023-03-14T00:40:58;12.40;1.00
11577;DHT22;5844;51.496;6.788;2023-03-14T00:43:24;12.20;1.00
11577;DHT22;5844;51.496;6.788;2023-03-14T00:45:50;11.80;99.90
11577;DHT22;5844;51.496;6.788;2023-03-14T00:48:17;11.50;99.90
11577;DHT22;5844;51.496;6.788;2023-03-14T00:50:43;11.30;99.90
11577;DHT22;5844;51.496;6.788;2023-03-14T00:53:09;11.20;99.90
11577;DHT22;5844;51.496;6.788;2023-03-14T00:55:39;11.10;99.90
11577;DHT22;5844;51.496;6.788;2023-03-14T00:58:05;10.90;99.90
11577;DHT22;5844;51.496;6.788;2023-03-14T01:00:31;10.80;99.90
11577;DHT22;5844;51.496;6.788;2023-03-14T01:02:57;10.80;99.90
11577;DHT22;5844;51.496;6.788;2023-03-14T01:05:23;10.70;99.90
11577;DHT22;5844;51.496;6.788;2023-03-14T01:07:49;10.70;99.90
11577;DHT22;5844;51.496;6.788;2023-03-14T01:10:15;10.60;99.90
11577;DHT22;5844;51.496;6.788;2023-03-14T01:12:41;10.60;99.90
11577;DHT22;5844;51.496;6.788;2023-03-14T01:15:07;10.50;99.90
11577;DHT22;5844;51.496;6.788;2023-03-14T01:17:33;10.60;99.90
11577;DHT22;5844;51.496;6.788;2023-03-14T01:20:00;10.60;99.90
11577;DHT22;5844;51.496;6.788;2023-03-14T01:22:25;10.60;99.90
11577;DHT22;5844;51.496;6.788;2023-03-14T01:24:51;10.60;99.90
11577;DHT22;5844;51.496;6.788;2023-03-14T01:27:17;10.60;99.90
11577;DHT22;5844;51.496;6.788;2023-03-14T01:29:42;10.60;99.90
11577;DHT22;5844;51.496;6.788;2023-03-14T01:32:08;10.60;99.90
11577;DHT22;5844;51.496;6.788;2023-03-14T01:34:33;10.60;99.90
11577;DHT22;5844;51.496;6.788;2023-03-14T01:36:59;10.60;99.90
11577;DHT22;5844;51.496;6.788;2023-03-14T01:39:25;10.60;99.90
11577;DHT22;5844;51.496;6.788;2023-03-14T01:41:50;10.70;99.90
11577;DHT22;5844;51.496;6.788;2023-03-14T01:44:16;10.70;99.90
11577;DHT22;5844;51.496;6.788;2023-03-14T01:46:45;10.80;99.90
11577;DHT22;5844;51.496;6.788;2023-03-14T01:49:20;10.70;99.90
11577;DHT22;5844;51.496;6.788;2023-03-14T01:51:51;10.60;99.90
11577;DHT22;5844;51.496;6.788;2023-03-14T01:57:17;10.40;99.90
11577;DHT22;5844;51.496;6.788;2023-03-14T02:00:09;10.40;99.90
11577;DHT22;5844;51.496;6.788;2023-03-14T02:02:38;10.40;99.90
11577;DHT22;5844;51.496;6.788;2023-03-14T02:05:05;10.30;99.90
11577;DHT22;5844;51.496;6.788;2023-03-14T02:07:48;10.40;99.90
11577;DHT22;5844;51.496;6.788;2023-03-14T02:10:14;10.30;99.90
11577;DHT22;5844;51.496;6.788;2023-03-14T02:12:41;10.40;99.90
11577;DHT22;5844;51.496;6.788;2023-03-14T02:15:08;10.40;99.90
11577;DHT22;5844;51.496;6.788;2023-03-14T02:17:35;10.40;99.90
11577;DHT22;5844;51.496;6.788;2023-03-14T02:20:34;10.50;99.90
11577;DHT22;5844;51.496;6.788;2023-03-14T02:23:03;10.50;99.90
11577;DHT22;5844;51.496;6.788;2023-03-14T02:27:57;10.50;99.90
11577;DHT22;5844;51.496;6.788;2023-03-14T02:30:26;10.50;99.90
11577;DHT22;5844;51.496;6.788;2023-03-14T02:32:57;10.50;99.90
11577;DHT22;5844;51.496;6.788;2023-03-14T02:35:27;10.60;99.90
11577;DHT22;5844;51.496;6.788;2023-03-14T02:37:59;10.60;99.90
11577;DHT22;5844;51.496;6.788;2023-03-14T02:40:25;10.60;99.90
11577;DHT22;5844;51.496;6.788;2023-03-14T02:42:51;10.60;99.90
11577;DHT22;5844;51.496;6.788;2023-03-14T02:47:55;10.60;99.90
11577;DHT22;5844;51.496;6.788;2023-03-14T02:50:26;10.60;99.90
11577;DHT22;5844;51.496;6.788;2023-03-14T02:52:52;10.60;99.90
11577;DHT22;5844;51.496;6.788;2023-03-14T02:55:22;10.60;99.90
11577;DHT22;5844;51.496;6.788;2023-03-14T02:57:47;10.60;99.90
11577;DHT22;5844;51.496;6.788;2023-03-14T03:00:13;10.70;99.90
11577;DHT22;5844;51.496;6.788;2023-03-14T03:02:40;10.70;99.90
11577;DHT22;5844;51.496;6.788;2023-03-14T03:05:06;10.70;99.90
11577;DHT22;5844;51.496;6.788;2023-03-14T03:07:31;10.70;99.90
11577;DHT22;5844;51.496;6.788;2023-03-14T03:09:57;10.70;99.90
11577;DHT22;5844;51.496;6.788;2023-03-14T03:12:23;10.80;99.90
11577;DHT22;5844;51.496;6.788;2023-03-14T03:14:48;10.80;99.90
11577;DHT22;5844;51.496;6.788;2023-03-14T03:17:14;10.80;99.90
11577;DHT22;5844;51.496;6.788;2023-03-14T03:19:40;10.80;99.90
11577;DHT22;5844;51.496;6.788;2023-03-14T03:22:05;10.80;99.90
11577;DHT22;5844;51.496;6.788;2023-03-14T03:24:31;11.00;99.90
11577;DHT22;5844;51.496;6.788;2023-03-14T03:26:57;10.80;99.90
11577;DHT22;5844;51.496;6.788;2023-03-14T03:29:22;11.10;99.90
11577;DHT22;5844;51.496;6.788;2023-03-14T03:31:48;10.90;99.90
11577;DHT22;5844;51.496;6.788;2023-03-14T03:34:14;10.90;99.90
11577;DHT22;5844;51.496;6.788;2023-03-14T03:36:40;11.00;99.90
11577;DHT22;5844;51.496;6.788;2023-03-14T03:39:07;10.90;99.90
11577;DHT22;5844;51.496;6.788;2023-03-14T03:41:33;11.00;99.90
11577;DHT22;5844;51.496;6.788;2023-03-14T03:43:59;10.90;99.90
11577;DHT22;5844;51.496;6.788;2023-03-14T03:46:24;11.00;99.90
11577;DHT22;5844;51.496;6.788;2023-03-14T03:48:57;10.90;99.90
11577;DHT22;5844;51.496;6.788;2023-03-14T03:51:23;10.70;99.90
11577;DHT22;5844;51.496;6.788;2023-03-14T03:53:49;11.20;99.90
11577;DHT22;5844;51.496;6.788;2023-03-14T03:56:15;10.70;99.90
11577;DHT22;5844;51.496;6.788;2023-03-14T03:58:41;10.70;99.90
11577;DHT22;5844;51.496;6.788;2023-03-14T04:01:08;10.60;99.90
11577;DHT22;5844;51.496;6.788;2023-03-14T04:03:34;10.60;99.90
11577;DHT22;5844;51.496;6.788;2023-03-14T04:06:01;10.50;99.90
11577;DHT22;5844;51.496;6.788;2023-03-14T04:08:28;10.50;99.90
11577;DHT22;5844;51.496;6.788;2023-03-14T04:10:58;10.40;99.90
11577;DHT22;5844;51.496;6.788;2023-03-14T04:13:25;10.40;99.90
11577;DHT22;5844;51.496;6.788;2023-03-14T04:15:51;10.50;99.90
11577;DHT22;5844;51.496;6.788;2023-03-14T04:18:17;10.50;99.90
11577;DHT22;5844;51.496;6.788;2023-03-14T04:20:43;10.60;99.90
11577;DHT22;5844;51.496;6.788;2023-03-14T04:23:09;10.60;99.90
11577;DHT22;5844;51.496;6.788;2023-03-14T04:25:35;10.50;99.90
11577;DHT22;5844;51.496;6.788;2023-03-14T04:28:01;10.40;99.90
11577;DHT22;5844;51.496;6.788;2023-03-14T04:30:27;10.20;99.90
11577;DHT22;5844;51.496;6.788;2023-03-14T04:32:52;10.00;99.90
11577;DHT22;5844;51.496;6.788;2023-03-14T04:35:18;9.90;99.90
11577;DHT22;5844;51.496;6.788;2023-03-14T04:37:44;9.80;99.90
11577;DHT22;5844;51.496;6.788;2023-03-14T04:40:10;9.80;99.90
11577;DHT22;5844;51.496;6.788;2023-03-14T04:42:36;9.70;99.90
11577;DHT22;5844;51.496;6.788;2023-03-14T04:45:02;9.70;99.90
11577;DHT22;5844;51.496;6.788;2023-03-14T04:47:28;9.60;99.90
11577;DHT22;5844;51.496;6.788;2023-03-14T04:49:53;9.60;99.90
11577;DHT22;5844;51.496;6.788;2023-03-14T04:52:19;9.90;99.90
11577;DHT22;5844;51.496;6.788;2023-03-14T04:54:45;9.50;99.90
11577;DHT22;5844;51.496;6.788;2023-03-14T04:57:10;9.40;99.90
11577;DHT22;5844;51.496;6.788;2023-03-14T04:59:36;9.40;99.90
11577;DHT22;5844;51.496;6.788;2023-03-14T05:02:01;9.40;99.90
11577;DHT22;5844;51.496;6.788;2023-03-14T05:04:27;9.40;99.90
11577;DHT22;5844;51.496;6.788;2023-03-14T05:06:53;9.70;99.90
11577;DHT22;5844;51.496;6.788;2023-03-14T05:09:19;9.30;99.90
11577;DHT22;5844;51.496;6.788;2023-03-14T05:11:45;9.20;99.90
11577;DHT22;5844;51.496;6.788;2023-03-14T05:14:10;9.70;99.90
11577;DHT22;5844;51.496;6.788;2023-03-14T05:16:36;9.20;99.90
11577;DHT22;5844;51.496;6.788;2023-03-14T05:19:01;9.20;99.90
11577;DHT22;5844;51.496;6.788;2023-03-14T05:21:27;9.20;99.90
11577;DHT22;5844;51.496;6.788;2023-03-14T05:23:53;9.20;99.90
11577;DHT22;5844;51.496;6.788;2023-03-14T05:26:18;9.10;99.90
11577;DHT22;5844;51.496;6.788;2023-03-14T05:28:44;8.60;99.90
11577;DHT22;5844;51.496;6.788;2023-03-14T05:31:10;9.30;99.90
11577;DHT22;5844;51.496;6.788;2023-03-14T05:33:36;9.20;99.90
11577;DHT22;5844;51.496;6.788;2023-03-14T05:36:01;9.10;99.90
11577;DHT22;5844;51.496;6.788;2023-03-14T05:38:27;9.20;99.90
11577;DHT22;5844;51.496;6.788;2023-03-14T05:40:53;8.90;99.90
11577;DHT22;5844;51.496;6.788;2023-03-14T05:43:18;9.20;99.90
11577;DHT22;5844;51.496;6.788;2023-03-14T05:45:44;9.30;99.90
11577;DHT22;5844;51.496;6.788;2023-03-14T05:48:10;9.10;99.90
11577;DHT22;5844;51.496;6.788;2023-03-14T05:50:36;9.10;99.90
11577;DHT22;5844;51.496;6.788;2023-03-14T05:53:01;9.20;99.90
11577;DHT22;5844;51.496;6.788;2023-03-14T05:55:27;9.50;99.90
11577;DHT22;5844;51.496;6.788;2023-03-14T05:57:54;9.20;99.90
11577;DHT22;5844;51.496;6.788;2023-03-14T06:00:20;9.60;99.90
11577;DHT22;5844;51.496;6.788;2023-03-14T06:02:46;9.20;99.90
11577;DHT22;5844;51.496;6.788;2023-03-14T06:05:12;9.20;99.90
11577;DHT22;5844;51.496;6.788;2023-03-14T06:07:37;9.30;99.90
11577;DHT22;5844;51.496;6.788;2023-03-14T06:10:03;9.30;99.90
11577;DHT22;5844;51.496;6.788;2023-03-14T06:12:29;9.30;99.90
11577;DHT22;5844;51.496;6.788;2023-03-14T06:14:55;9.80;99.90
11577;DHT22;5844;51.496;6.788;2023-03-14T06:17:20;9.30;99.90
11577;DHT22;5844;51.496;6.788;2023-03-14T06:19:46;9.30;99.90
11577;DHT22;5844;51.496;6.788;2023-03-14T06:22:11;9.40;99.90
11577;DHT22;5844;51.496;6.788;2023-03-14T06:24:37;9.80;99.90
11577;DHT22;5844;51.496;6.788;2023-03-14T06:27:03;9.60;99.90
11577;DHT22;5844;51.496;6.788;2023-03-14T06:29:29;9.50;99.90
11577;DHT22;5844;51.496;6.788;2023-03-14T06:31:55;10.10;99.90
11577;DHT22;5844;51.496;6.788;2023-03-14T06:34:21;10.00;99.90
11577;DHT22;5844;51.496;6.788;2023-03-14T06:36:47;8.60;99.90
11577;DHT22;5844;51.496;6.788;2023-03-14T06:39:12;9.60;99.90
11577;DHT22;5844;51.496;6.788;2023-03-14T06:41:38;9.60;99.90
11577;DHT22;5844;51.496;6.788;2023-03-14T06:44:04;9.70;99.90
11577;DHT22;5844;51.496;6.788;2023-03-14T06:46:30;9.70;99.90
11577;DHT22;5844;51.496;6.788;2023-03-14T06:48:55;9.80;99.90
11577;DHT22;5844;51.496;6.788;2023-03-14T06:51:21;9.80;99.90
11577;DHT22;5844;51.496;6.788;2023-03-14T06:53:47;9.80;99.90
11577;DHT22;5844;51.496;6.788;2023-03-14T06:56:13;9.80;99.90
11577;DHT22;5844;51.496;6.788;2023-03-14T06:58:38;9.80;99.90
11577;DHT22;5844;51.496;6.788;2023-03-14T07:01:04;9.90;99.90
11577;DHT22;5844;51.496;6.788;2023-03-14T07:03:30;9.90;99.90
11577;DHT22;5844;51.496;6.788;2023-03-14T07:05:56;9.90;99.90
11577;DHT22;5844;51.496;6.788;2023-03-14T07:08:22;9.90;99.90
11577;DHT22;5844;51.496;6.788;2023-03-14T07:10:47;9.90;99.90
11577;DHT22;5844;51.496;6.788;2023-03-14T07:13:13;9.90;99.90
11577;DHT22;5844;51.496;6.788;2023-03-14T07:15:38;10.00;99.90
11577;DHT22;5844;51.496;6.788;2023-03-14T07:18:04;9.90;99.90
11577;DHT22;5844;51.496;6.788;2023-03-14T07:20:30;10.00;99.90
11577;DHT22;5844;51.496;6.788;2023-03-14T07:22:57;10.00;99.90
11577;DHT22;5844;51.496;6.788;2023-03-14T07:25:25;10.00;99.90
11577;DHT22;5844;51.496;6.788;2023-03-14T07:27:50;10.10;99.90
11577;DHT22;5844;51.496;6.788;2023-03-14T07:30:16;10.10;99.90
11577;DHT22;5844;51.496;6.788;2023-03-14T07:32:42;10.10;99.90
11577;DHT22;5844;51.496;6.788;2023-03-14T07:35:08;10.10;99.90
11577;DHT22;5844;51.496;6.788;2023-03-14T07:37:35;10.20;99.90
11577;DHT22;5844;51.496;6.788;2023-03-14T07:40:01;10.10;99.90
11577;DHT22;5844;51.496;6.788;2023-03-14T07:42:26;10.20;99.90
11577;DHT22;5844;51.496;6.788;2023-03-14T07:44:52;10.20;99.90
11577;DHT22;5844;51.496;6.788;2023-03-14T07:47:17;10.20;99.90
11577;DHT22;5844;51.496;6.788;2023-03-14T07:49:43;10.20;99.90
11577;DHT22;5844;51.496;6.788;2023-03-14T07:52:09;10.20;99.90
11577;DHT22;5844;51.496;6.788;2023-03-14T07:54:34;10.20;99.90
11577;DHT22;5844;51.496;6.788;2023-03-14T07:57:00;10.30;99.90
11577;DHT22;5844;51.496;6.788;2023-03-14T07:59:27;10.30;99.90
11577;DHT22;5844;51.496;6.788;2023-03-14T08:01:52;10.30;99.90
11577;DHT22;5844;51.496;6.788;2023-03-14T08:04:18;10.30;99.90
11577;DHT22;5844;51.496;6.788;2023-03-14T08:06:44;10.30;99.90
11577;DHT22;5844;51.496;6.788;2023-03-14T08:09:09;10.40;99.90
11577;DHT22;5844;51.496;6.788;2023-03-14T08:11:35;10.50;99.90
11577;DHT22;5844;51.496;6.788;2023-03-14T08:14:01;10.60;99.90
11577;DHT22;5844;51.496;6.788;2023-03-14T08:16:27;10.80;99.90
11577;DHT22;5844;51.496;6.788;2023-03-14T08:18:52;10.90;99.90
11577;DHT22;5844;51.496;6.788;2023-03-14T08:21:18;11.00;99.90
11577;DHT22;5844;51.496;6.788;2023-03-14T08:23:44;11.00;99.90
11577;DHT22;5844;51.496;6.788;2023-03-14T08:26:09;11.00;99.90
11577;DHT22;5844;51.496;6.788;2023-03-14T08:28:35;11.00;99.90
11577;DHT22;5844;51.496;6.788;2023-03-14T08:31:01;11.00;99.90
11577;DHT22;5844;51.496;6.788;2023-03-14T08:33:28;11.00;99.90
11577;DHT22;5844;51.496;6.788;2023-03-14T08:35:59;11.00;99.90
11577;DHT22;5844;51.496;6.788;2023-03-14T08:38:25;11.00;99.90
11577;DHT22;5844;51.496;6.788;2023-03-14T08:40:58;11.00;99.90
11577;DHT22;5844;51.496;6.788;2023-03-14T08:43:25;10.90;99.90
11577;DHT22;5844;51.496;6.788;2023-03-14T08:45:50;10.80;99.90
11577;DHT22;5844;51.496;6.788;2023-03-14T08:48:16;10.80;99.90
11577;DHT22;5844;51.496;6.788;2023-03-14T08:50:42;10.80;99.90
11577;DHT22;5844;51.496;6.788;2023-03-14T08:53:07;10.80;99.90
11577;DHT22;5844;51.496;6.788;2023-03-14T08:55:34;10.80;99.90
11577;DHT22;5844;51.496;6.788;2023-03-14T08:57:59;10.80;99.90
11577;DHT22;5844;51.496;6.788;2023-03-14T09:00:25;10.70;99.90
11577;DHT22;5844;51.496;6.788;2023-03-14T09:02:51;10.70;99.90
11577;DHT22;5844;51.496;6.788;2023-03-14T09:05:16;10.60;99.90
11577;DHT22;5844;51.496;6.788;2023-03-14T09:07:42;10.60;99.90
11577;DHT22;5844;51.496;6.788;2023-03-14T09:10:09;10.60;99.90
11577;DHT22;5844;51.496;6.788;2023-03-14T09:12:35;9.80;99.90
11577;DHT22;5844;51.496;6.788;2023-03-14T09:15:01;9.30;99.90
11577;DHT22;5844;51.496;6.788;2023-03-14T09:17:27;9.50;99.90
11577;DHT22;5844;51.496;6.788;2023-03-14T09:19:53;9.30;99.90
11577;DHT22;5844;51.496;6.788;2023-03-14T09:22:19;9.00;99.90
11577;DHT22;5844;51.496;6.788;2023-03-14T09:24:45;8.90;99.90
11577;DHT22;5844;51.496;6.788;2023-03-14T09:27:11;9.10;99.90
11577;DHT22;5844;51.496;6.788;2023-03-14T09:29:37;8.80;99.90
11577;DHT22;5844;51.496;6.788;2023-03-14T09:32:03;8.20;99.90
11577;DHT22;5844;51.496;6.788;2023-03-14T09:34:29;8.80;99.90
11577;DHT22;5844;51.496;6.788;2023-03-14T09:36:55;8.80;99.90
11577;DHT22;5844;51.496;6.788;2023-03-14T09:39:20;8.70;99.90
11577;DHT22;5844;51.496;6.788;2023-03-14T09:41:51;8.70;99.90
11577;DHT22;5844;51.496;6.788;2023-03-14T09:44:27;8.70;99.90
11577;DHT22;5844;51.496;6.788;2023-03-14T09:46:57;8.70;99.90
11577;DHT22;5844;51.496;6.788;2023-03-14T09:49:29;8.60;99.90
11577;DHT22;5844;51.496;6.788;2023-03-14T09:51:58;8.60;99.90
11577;DHT22;5844;51.496;6.788;2023-03-14T09:54:47;8.80;99.90
11577;DHT22;5844;51.496;6.788;2023-03-14T09:57:22;8.60;99.90
11577;DHT22;5844;51.496;6.788;2023-03-14T09:59:49;8.50;99.90
11577;DHT22;5844;51.496;6.788;2023-03-14T10:02:17;8.40;99.90
11577;DHT22;5844;51.496;6.788;2023-03-14T10:04:48;8.40;99.90
11577;DHT22;5844;51.496;6.788;2023-03-14T10:07:21;8.60;99.90
11577;DHT22;5844;51.496;6.788;2023-03-14T10:09:50;8.30;99.90
11577;DHT22;5844;51.496;6.788;2023-03-14T10:12:17;8.30;99.90
11577;DHT22;5844;51.496;6.788;2023-03-14T10:14:51;8.50;99.90
11577;DHT22;5844;51.496;6.788;2023-03-14T10:17:19;8.60;99.90
11577;DHT22;5844;51.496;6.788;2023-03-14T10:19:59;8.30;99.90
11577;DHT22;5844;51.496;6.788;2023-03-14T10:22:29;8.20;99.90
11577;DHT22;5844;51.496;6.788;2023-03-14T10:25:01;8.20;99.90
11577;DHT22;5844;51.496;6.788;2023-03-14T10:27:30;8.10;99.90
11577;DHT22;5844;51.496;6.788;2023-03-14T10:29:59;8.40;99.90
11577;DHT22;5844;51.496;6.788;2023-03-14T10:32:38;8.00;99.90
11577;DHT22;5844;51.496;6.788;2023-03-14T10:35:19;7.90;99.90
11577;DHT22;5844;51.496;6.788;2023-03-14T10:37:56;7.80;99.90
11577;DHT22;5844;51.496;6.788;2023-03-14T10:40:38;7.60;99.90
11577;DHT22;5844;51.496;6.788;2023-03-14T10:43:06;7.60;99.90
11577;DHT22;5844;51.496;6.788;2023-03-14T10:45:41;7.50;99.90
11577;DHT22;5844;51.496;6.788;2023-03-14T10:51:09;7.50;99.90
11577;DHT22;5844;51.496;6.788;2023-03-14T10:53:42;7.40;99.90
11577;DHT22;5844;51.496;6.788;2023-03-14T10:56:13;7.50;99.90
11577;DHT22;5844;51.496;6.788;2023-03-14T10:58:42;7.80;99.90
11577;DHT22;5844;51.496;6.788;2023-03-14T11:01:44;7.50;99.90
11577;DHT22;5844;51.496;6.788;2023-03-14T11:07:02;8.00;99.90
11577;DHT22;5844;51.496;6.788;2023-03-14T11:09:41;8.20;99.90
11577;DHT22;5844;51.496;6.788;2023-03-14T11:15:22;8.60;99.90
11577;DHT22;5844;51.496;6.788;2023-03-14T11:23:25;9.30;99.90
11577;DHT22;5844;51.496;6.788;2023-03-14T11:31:44;9.00;99.90
11577;DHT22;5844;51.496;6.788;2023-03-14T11:34:36;8.80;99.90
11577;DHT22;5844;51.496;6.788;2023-03-14T11:37:28;8.50;99.90
11577;DHT22;5844;51.496;6.788;2023-03-14T11:42:42;8.10;99.90
11577;DHT22;5844;51.496;6.788;2023-03-14T11:45:21;8.10;99.90
11577;DHT22;5844;51.496;6.788;2023-03-14T11:48:16;8.10;99.90
11577;DHT22;5844;51.496;6.788;2023-03-14T11:50:44;8.10;99.90
11577;DHT22;5844;51.496;6.788;2023-03-14T11:53:15;8.10;99.90
11577;DHT22;5844;51.496;6.788;2023-03-14T11:55:43;8.30;99.90
11577;DHT22;5844;51.496;6.788;2023-03-14T11:58:21;8.90;99.90
11577;DHT22;5844;51.496;6.788;2023-03-14T12:00:49;9.30;99.90
11577;DHT22;5844;51.496;6.788;2023-03-14T12:03:51;9.60;99.90
11577;DHT22;5844;51.496;6.788;2023-03-14T12:08:58;9.40;99.90
11577;DHT22;5844;51.496;6.788;2023-03-14T12:11:44;9.50;99.90
11577;DHT22;5844;51.496;6.788;2023-03-14T12:14:37;9.70;99.90
11577;DHT22;5844;51.496;6.788;2023-03-14T12:19:39;9.90;99.90
11577;DHT22;5844;51.496;6.788;2023-03-14T12:22:29;9.70;99.90
11577;DHT22;5844;51.496;6.788;2023-03-14T12:25:00;9.50;99.90
11577;DHT22;5844;51.496;6.788;2023-03-14T12:30:26;9.10;99.90
11577;DHT22;5844;51.496;6.788;2023-03-14T12:33:14;8.50;99.90
11577;DHT22;5844;51.496;6.788;2023-03-14T12:35:48;8.20;99.90
11577;DHT22;5844;51.496;6.788;2023-03-14T12:41:17;7.70;99.90
11577;DHT22;5844;51.496;6.788;2023-03-14T12:43:45;8.20;99.90
11577;DHT22;5844;51.496;6.788;2023-03-14T12:48:49;8.00;99.90
11577;DHT22;5844;51.496;6.788;2023-03-14T12:51:20;8.60;99.90
11577;DHT22;5844;51.496;6.788;2023-03-14T13:02:28;10.60;99.90
11577;DHT22;5844;51.496;6.788;2023-03-14T13:05:05;9.90;99.90
11577;DHT22;5844;51.496;6.788;2023-03-14T13:10:28;8.60;99.90
11577;DHT22;5844;51.496;6.788;2023-03-14T13:13:19;8.00;99.90
11577;DHT22;5844;51.496;6.788;2023-03-14T13:15:47;8.10;99.90
11577;DHT22;5844;51.496;6.788;2023-03-14T13:18:16;7.80;99.90
11577;DHT22;5844;51.496;6.788;2023-03-14T13:21:34;8.00;99.90
11577;DHT22;5844;51.496;6.788;2023-03-14T13:23:37;8.20;99.90
11577;DHT22;5844;51.496;6.788;2023-03-14T13:26:11;8.40;99.90
11577;DHT22;5844;51.496;6.788;2023-03-14T13:28:38;8.40;99.90
11577;DHT22;5844;51.496;6.788;2023-03-14T13:31:04;8.60;99.90
11577;DHT22;5844;51.496;6.788;2023-03-14T13:33:32;8.70;99.90
11577;DHT22;5844;51.496;6.788;2023-03-14T13:36:00;9.30;99.90
11577;DHT22;5844;51.496;6.788;2023-03-14T13:38:32;9.10;99.90
11577;DHT22;5844;51.496;6.788;2023-03-14T13:40:59;9.50;78.10
11577;DHT22;5844;51.496;6.788;2023-03-14T13:43:36;9.80;16.70
11577;DHT22;5844;51.496;6.788;2023-03-14T13:48:31;11.40;1.00
11577;DHT22;5844;51.496;6.788;2023-03-14T13:51:06;12.20;1.00
11577;DHT22;5844;51.496;6.788;2023-03-14T13:53:45;12.20;1.00
11577;DHT22;5844;51.496;6.788;2023-03-14T13:56:11;12.70;1.00
11577;DHT22;5844;51.496;6.788;2023-03-14T13:58:38;13.10;1.00
11577;DHT22;5844;51.496;6.788;2023-03-14T14:03:55;14.30;1.00
11577;DHT22;5844;51.496;6.788;2023-03-14T14:06:38;15.40;1.00
11577;DHT22;5844;51.496;6.788;2023-03-14T14:09:14;15.90;1.00
11577;DHT22;5844;51.496;6.788;2023-03-14T14:11:48;15.40;1.00
11577;DHT22;5844;51.496;6.788;2023-03-14T14:17:38;15.30;1.00
11577;DHT22;5844;51.496;6.788;2023-03-14T14:20:19;16.10;1.00
11577;DHT22;5844;51.496;6.788;2023-03-14T14:22:46;15.30;1.00
11577;DHT22;5844;51.496;6.788;2023-03-14T14:25:15;16.70;1.00
11577;DHT22;5844;51.496;6.788;2023-03-14T14:27:43;16.80;1.00
11577;DHT22;5844;51.496;6.788;2023-03-14T14:30:30;16.60;1.00
11577;DHT22;5844;51.496;6.788;2023-03-14T14:33:11;16.80;1.00
11577;DHT22;5844;51.496;6.788;2023-03-14T14:35:37;17.40;1.00
11577;DHT22;5844;51.496;6.788;2023-03-14T14:38:11;18.10;1.00
11577;DHT22;5844;51.496;6.788;2023-03-14T14:40:47;18.10;1.00
11577;DHT22;5844;51.496;6.788;2023-03-14T14:43:35;18.40;1.00
11577;DHT22;5844;51.496;6.788;2023-03-14T14:46:06;18.70;1.00
11577;DHT22;5844;51.496;6.788;2023-03-14T14:48:37;18.20;1.00
11577;DHT22;5844;51.496;6.788;2023-03-14T14:51:05;18.30;1.00
11577;DHT22;5844;51.496;6.788;2023-03-14T14:53:42;16.70;1.00
11577;DHT22;5844;51.496;6.788;2023-03-14T14:56:26;15.30;1.00
11577;DHT22;5844;51.496;6.788;2023-03-14T14:58:58;15.10;1.00
11577;DHT22;5844;51.496;6.788;2023-03-14T15:01:25;14.90;1.00
11577;DHT22;5844;51.496;6.788;2023-03-14T15:03:55;14.00;1.00
11577;DHT22;5844;51.496;6.788;2023-03-14T15:06:22;13.10;1.00
11577;DHT22;5844;51.496;6.788;2023-03-14T15:08:49;13.10;1.00
11577;DHT22;5844;51.496;6.788;2023-03-14T15:11:20;13.20;1.00
11577;DHT22;5844;51.496;6.788;2023-03-14T15:13:48;13.40;1.00
11577;DHT22;5844;51.496;6.788;2023-03-14T15:16:15;13.10;1.00
11577;DHT22;5844;51.496;6.788;2023-03-14T15:18:42;12.40;1.00
11577;DHT22;5844;51.496;6.788;2023-03-14T15:21:10;11.70;1.00
11577;DHT22;5844;51.496;6.788;2023-03-14T15:23:36;11.30;1.00
11577;DHT22;5844;51.496;6.788;2023-03-14T15:26:04;11.10;1.00
11577;DHT22;5844;51.496;6.788;2023-03-14T15:28:30;10.80;1.00
11577;DHT22;5844;51.496;6.788;2023-03-14T15:30:58;10.70;1.00
11577;DHT22;5844;51.496;6.788;2023-03-14T15:33:25;10.90;1.00
11577;DHT22;5844;51.496;6.788;2023-03-14T15:35:51;11.10;1.00
11577;DHT22;5844;51.496;6.788;2023-03-14T15:38:19;11.00;1.00
11577;DHT22;5844;51.496;6.788;2023-03-14T15:40:50;10.80;1.00
11577;DHT22;5844;51.496;6.788;2023-03-14T15:43:16;10.50;1.00
11577;DHT22;5844;51.496;6.788;2023-03-14T15:45:42;10.40;1.00
11577;DHT22;5844;51.496;6.788;2023-03-14T15:48:16;10.60;1.00
11577;DHT22;5844;51.496;6.788;2023-03-14T15:50:43;10.60;1.00
11577;DHT22;5844;51.496;6.788;2023-03-14T15:53:09;10.40;1.00
11577;DHT22;5844;51.496;6.788;2023-03-14T15:55:34;10.00;1.00
11577;DHT22;5844;51.496;6.788;2023-03-14T15:58:00;9.80;1.00
11577;DHT22;5844;51.496;6.788;2023-03-14T16:00:28;9.60;1.00
11577;DHT22;5844;51.496;6.788;2023-03-14T16:02:54;9.70;1.00
11577;DHT22;5844;51.496;6.788;2023-03-14T16:05:20;9.90;1.00
11577;DHT22;5844;51.496;6.788;2023-03-14T16:07:46;9.60;1.00
11577;DHT22;5844;51.496;6.788;2023-03-14T16:10:13;9.50;1.00
11577;DHT22;5844;51.496;6.788;2023-03-14T16:12:39;9.40;1.00
11577;DHT22;5844;51.496;6.788;2023-03-14T16:15:06;9.20;1.00
11577;DHT22;5844;51.496;6.788;2023-03-14T16:17:32;9.10;1.00
11577;DHT22;5844;51.496;6.788;2023-03-14T16:19:58;8.90;1.00
11577;DHT22;5844;51.496;6.788;2023-03-14T16:22:23;8.80;1.00
11577;DHT22;5844;51.496;6.788;2023-03-14T16:24:49;9.30;1.00
11577;DHT22;5844;51.496;6.788;2023-03-14T16:27:15;8.80;1.00
11577;DHT22;5844;51.496;6.788;2023-03-14T16:29:41;9.20;1.00
11577;DHT22;5844;51.496;6.788;2023-03-14T16:32:07;8.70;99.90
11577;DHT22;5844;51.496;6.788;2023-03-14T16:34:33;8.70;99.90
11577;DHT22;5844;51.496;6.788;2023-03-14T16:36:58;8.70;1.00
11577;DHT22;5844;51.496;6.788;2023-03-14T16:39:24;9.50;1.00
11577;DHT22;5844;51.496;6.788;2023-03-14T16:41:50;9.30;99.90
11577;DHT22;5844;51.496;6.788;2023-03-14T16:44:15;8.40;99.90
11577;DHT22;5844;51.496;6.788;2023-03-14T16:46:41;8.30;99.90
11577;DHT22;5844;51.496;6.788;2023-03-14T16:49:07;8.40;99.90
11577;DHT22;5844;51.496;6.788;2023-03-14T16:51:32;8.60;99.90
11577;DHT22;5844;51.496;6.788;2023-03-14T16:53:58;8.10;1.00
11577;DHT22;5844;51.496;6.788;2023-03-14T16:56:24;8.00;99.90
11577;DHT22;5844;51.496;6.788;2023-03-14T16:58:49;8.30;99.90
11577;DHT22;5844;51.496;6.788;2023-03-14T17:01:16;7.90;99.90
11577;DHT22;5844;51.496;6.788;2023-03-14T17:03:47;8.00;99.90
11577;DHT22;5844;51.496;6.788;2023-03-14T17:06:17;8.40;99.90
11577;DHT22;5844;51.496;6.788;2023-03-14T17:08:43;8.20;99.90
11577;DHT22;5844;51.496;6.788;2023-03-14T17:11:09;8.20;99.90